AirNav   Everest Fuels
 
 1322 users online  

I44 Dahio Trotwood Airport
Dayton, Ohio, USA

GOING TO DAYTON?


FAA INFORMATION EFFECTIVE 18 JUNE 2020

Location

FAA Identifier: I44
Lat/Long: 39-45-57.2030N 084-20-35.8020W
39-45.953383N 084-20.596700W
39.7658897,-84.3432783
(estimated)
Elevation: 925 ft. / 282 m (estimated)
Variation: 04W (1985)
From city: 7 miles W of DAYTON, OH
Time zone: UTC -4 (UTC -5 during Standard Time)
Zip code: 45427

Airport Operations

Airport use: Open to the public
Activation date: 08/1971
Control tower: no
ARTCC: INDIANAPOLIS CENTER
FSS: DAYTON FLIGHT SERVICE STATION
NOTAMs facility: DAY (NOTAM-D service available)
Attendance: UNATNDD
Wind indicator: yes
Segmented circle: no

Airport Communications

CTAF/UNICOM: 122.8
COLUMBUS APPROACH: 118.85
COLUMBUS DEPARTURE: 118.85
CLASS C: 118.85
IC: 118.85
WX ASOS at DAY (10 nm NE): PHONE 937-415-6819
WX ASOS at MGY (12 nm SE): 118.375 (937-885-2171)
WX AWOS-3 at MWO (14 nm S): 120.025 (513-422-3505)
WX AWOS-3 at I19 (17 nm E): 118.525 (937-372-4668)
WX AWOS-3 at I68 (19 nm S): 120.55 (513-934-5500)

Nearby radio navigation aids

VOR radial/distance  VOR name  Freq  Var
DQNr172/15.2DAYTON VOR/DME114.5001W
MXQr313/32.2MIDWEST VOR/DME112.9004W
RODr209/34.2ROSEWOOD VORTAC117.5005W

 
NDB name  Hdg/Dist  Freq  Var  ID
BRUNY191/4.931506WAT .- -
ONIDA359/11.322304WMW -- .--
HOOK FIELD021/16.723904WHKF .... -.- ..-.
CLARK COUNTY260/26.834104WCCJ -.-. -.-. .---
CINCINNATI004/36.433504WLUK .-.. ..- -.-

Airport Services

Bottled oxygen: NONE
Bulk oxygen: NONE

Runway Information

Runway 4/22

Dimensions: 2900 x 52 ft. / 884 x 16 m
Surface: asphalt, in poor condition
NUMEROUS CRACKS IN PAVEMENT WITH 3 FT VEGETATION.
Weight bearing capacity: 
Single wheel: 5000 LBS SINGLE WHEEL STRENGTH LIMIT PER ARPT MGR.
RUNWAY 4  RUNWAY 22
Latitude: 39-45.731333N39-46.081333N
Longitude: 084-20.787667W084-20.367667W
Elevation: 925.0 ft.925.0 ft.
Traffic pattern: leftleft
Runway end identifier lights: nono
Obstructions: 15 ft. crops, 201 ft. from runway
15 FT CROPS 0-200 FT DSTC, 0 FT BASE LEG.
65 ft. trees, 201 ft. from runway, 110 ft. left of centerline
40 FT TREES 0 FT FM RWY END 20-125 FT L; 15 FT CROPS 0 FT FM RWY END.

Airport Ownership and Management from official FAA records

Ownership: Privately-owned
Owner: S & S LAND & FARMS, LLC
1550 SOLDIERS HOME-WEST CARROLLTON
DAYTON, OH 45417
Phone 937-263-2676
Manager: STEVE RAUCH
1550 SOLDIERS HOME-WEST CARROLTON R
DAYTON, OH 45417
Phone (937) 604-2619
MGR CELL.

Additional Remarks

ULTRALIGHTS ON & INVOF ARPT.
COLUMBUS APCH CTL TEL# 614-338-8537.
RWY 04/22 NO MKG.
LDI (TET) INOP/UNREL.
RWY 04/22 15 FT CROPS, 6 FT FM RWY EDGE BOTH SIDES, ENTIRE LENGTH.
MOWED PATH FM RWY 04 END TO HGR AREA NOT SUITABLE FOR ACFT.
ARPT PHYS ADDR 1334 LUTHERAN CHURCH RD DAYTON OH 45417.
TXY FM MID FLD TO HGR AREA, 35 FT CLNC BTN 15 FT CROPS.

Instrument Procedures

There are no published instrument procedures at I44.

Some nearby airports with instrument procedures:

3I7 - Dayton-Phillipsburg Airport (9 nm N)
KDAY - James M Cox Dayton International Airport (10 nm NE)
KMGY - Dayton-Wright Brothers Airport (12 nm SE)
KFFO - Wright-Patterson Air Force Base (14 nm E)
KMWO - Middletown Regional Airport/Hook Field (14 nm S)
I19 - Greene County-Lewis A Jackson Regional Airport (17 nm E)
I68 - Warren County Airport/John Lane Field (19 nm S)
 
Loc | Ops | Rwys | IFR | FBO | Links
Com | Nav | Svcs | Stats | Notes
Area around I44 (Dahio Trotwood Airport)
 
Road maps at: MapQuest Bing Google
 
Aerial photo
WARNING: Photo may not be current or correct
Aerial photo of I44 (Dahio Trotwood Airport)
Photo taken 12-Oct-2014
looking southwest.

Do you have a better or more recent aerial photo of Dahio Trotwood Airport that you would like to share? If so, please send us your photo.

 
Sectional chart

 
Airport distance calculator
Flying to Dahio Trotwood Airport? Find the distance to fly.

From to I44

Sunrise and sunset
Times for 13-Jul-2020
 Local
(UTC-4)
 Zulu
(UTC)
Morning civil twilight05:5009:50
Sunrise06:2210:22
Sunset21:0401:04
Evening civil twilight21:3601:36

Current date and time
Zulu (UTC)  13-Jul-2020 21:11:51
Local (UTC-4)  13-Jul-2020 17:11:51
 
METAR
KDAY 
10nm NE 
132056Z 33010KT 10SM SCT052 28/16 A2998 RMK AO2 SLP145 T02830156 53001
KMGY 
11nm SE 
132053Z AUTO 32006KT 10SM BKN055 28/16 A2995 RMK AO2 SLP135 T02830161 57001
KMWO 
14nm S 
132055Z AUTO 36006KT 10SM OVC055 A2996 RMK AO2
KFFO 
15nm E 
132056Z AUTO 36007KT 10SM FEW050 28/16 A2996 RMK AO2 SLP144 T02830155 50000 $
KI68 
19nm S 
132055Z AUTO 01003KT 10SM BKN055 BKN065 OVC080 28/17 A2996 RMK AO1 T02760166
TAF
KDAY 
10nm NE 
131738Z 1318/1418 34008KT P6SM SCT050 FM140000 01005KT P6SM FEW050 FM140300 04004KT P6SM SKC FM140600 VRB03KT P6SM SKC FM141400 11005KT P6SM SKC FM141600 12005KT P6SM FEW050
KFFO 
15nm E 
131900Z 1319/1501 31009KT 9999 SCT050 QNH2994INS TEMPO 1410/1412 VRB06KT 9000 BR BECMG 1414/1415 VRB06KT 9999 SCT045 QNH3006INS TX29/1418Z TN16/1411Z
NOTAMs
Click for the latest NOTAMs
NOTAMs are issued by the DoD/FAA and will open in a separate window not controlled by AirNav.

 

 
 

Would you like to see your business listed on this page?

 If your business provides an interesting product or service to pilots, flight crews, aircraft, or users of the Dahio Trotwood Airport, you should consider listing it here.  To start the listing process, click on the button below
 
Add a business
 

Other Pages about Dahio Trotwood Airport

Update a link
 
Copyright © AirNav, LLC. All rights reserved. Privacy Policy  Contact